^^
Station Historical Data
Daily Summary for March 30, 2017 Units:  Both    English   Metric
« Previous Day
Next Day »
Daily Weekly Monthly Yearly Custom
  High: Low: Average:
Temperature: 83.7 °F /  28.7 °C 55.0 °F /  12.8 °C 69.3 °F /  20.7 °C
Dew Point: 48.2 °F /  9 °C 42.8 °F /  6 °C 45.5 °F /  7.5 °C
Humidity: 74% 25% 45%
Wind Speed: 11.0mph /  17.7km/h - 2.1mph /  3.4km/h
Wind Gust: 21.0mph /  33.8km/h - -
Wind- - East
Pressure: 30.41 in /  1029.7 hPa 30.29 in /  1025.6 hPa -
Precipitation: 0.00 in /  0 mm    
Historical Graphs
 
 
Tabular Data for March 30, 2017
Time Temperature Dew Point Pressure Wind Wind Speed Wind Gust Humidity Rainfall Rate (Hourly) solar Conditions
00:01 66.2 °F /  19 °C 46.4 °F /  8 °C 30.30in /  1026hPa East 2.9mph /  4.7km/h 6.0mph /  9.7km/h 49% 0.00in /  0mm 0.0 W/m2
00:07 66.0 °F /  18.9 °C 46.8 °F /  8.2 °C 30.30in /  1026hPa Calm   5.0mph /  8km/h 50% 0.00in /  0mm 0.0 W/m2
00:13 65.8 °F /  18.8 °C 46.8 °F /  8.2 °C 30.30in /  1026hPa ENE 2.9mph /  4.7km/h 4.0mph /  6.4km/h 50% 0.00in /  0mm 0.0 W/m2
00:19 65.8 °F /  18.8 °C 46.8 °F /  8.2 °C 30.30in /  1026hPa Calm   5.0mph /  8km/h 50% 0.00in /  0mm 0.0 W/m2
00:25 65.8 °F /  18.8 °C 46.8 °F /  8.2 °C 30.30in /  1026hPa ESE 6.0mph /  9.7km/h 9.0mph /  14.5km/h 50% 0.00in /  0mm 0.0 W/m2
00:31 65.7 °F /  18.7 °C 46.6 °F /  8.1 °C 30.30in /  1026hPa South 2.0mph /  3.2km/h 6.0mph /  9.7km/h 50% 0.00in /  0mm 0.0 W/m2
00:37 65.5 °F /  18.6 °C 46.4 °F /  8 °C 30.30in /  1026hPa SSE 0.9mph /  1.4km/h 5.0mph /  8km/h 50% 0.00in /  0mm 0.0 W/m2
00:44 65.1 °F /  18.4 °C 46.6 °F /  8.1 °C 30.30in /  1026hPa Calm   7.0mph /  11.3km/h 51% 0.00in /  0mm 0.0 W/m2
00:50 64.8 °F /  18.2 °C 46.8 °F /  8.2 °C 30.31in /  1026.3hPa ENE 0.9mph /  1.4km/h 10.0mph /  16.1km/h 52% 0.00in /  0mm 0.0 W/m2
00:56 64.6 °F /  18.1 °C 46.6 °F /  8.1 °C 30.31in /  1026.3hPa NW 2.9mph /  4.7km/h 4.0mph /  6.4km/h 52% 0.00in /  0mm 0.0 W/m2
01:02 64.2 °F /  17.9 °C 46.8 °F /  8.2 °C 30.31in /  1026.3hPa ESE 2.9mph /  4.7km/h 6.0mph /  9.7km/h 53% 0.00in /  0mm 0.0 W/m2
01:08 64.0 °F /  17.8 °C 46.6 °F /  8.1 °C 30.30in /  1026hPa SE 0.9mph /  1.4km/h 6.0mph /  9.7km/h 53% 0.00in /  0mm 0.0 W/m2
01:14 63.9 °F /  17.7 °C 46.4 °F /  8 °C 30.31in /  1026.3hPa NE 4.0mph /  6.4km/h 5.0mph /  8km/h 53% 0.00in /  0mm 0.0 W/m2
01:20 63.9 °F /  17.7 °C 45.9 °F /  7.7 °C 30.31in /  1026.3hPa ENE 4.9mph /  7.9km/h 7.0mph /  11.3km/h 52% 0.00in /  0mm 0.0 W/m2
01:26 63.9 °F /  17.7 °C 46.4 °F /  8 °C 30.31in /  1026.3hPa SE 2.0mph /  3.2km/h 7.0mph /  11.3km/h 53% 0.00in /  0mm 0.0 W/m2
01:32 63.7 °F /  17.6 °C 46.2 °F /  7.9 °C 30.31in /  1026.3hPa ESE 4.9mph /  7.9km/h 6.0mph /  9.7km/h 53% 0.00in /  0mm 0.0 W/m2
01:39 63.7 °F /  17.6 °C 46.2 °F /  7.9 °C 30.31in /  1026.3hPa ESE 2.0mph /  3.2km/h 4.0mph /  6.4km/h 53% 0.00in /  0mm 0.0 W/m2
01:45 63.1 °F /  17.3 °C 46.2 °F /  7.9 °C 30.31in /  1026.3hPa ENE 0.9mph /  1.4km/h 1.0mph /  1.6km/h 54% 0.00in /  0mm 0.0 W/m2
01:51 62.8 °F /  17.1 °C 46.4 °F /  8 °C 30.31in /  1026.3hPa Calm   3.0mph /  4.8km/h 55% 0.00in /  0mm 0.0 W/m2
01:53 62.8 °F /  17.1 °C 46.4 °F /  8 °C 30.31in /  1026.3hPa NE 2.0mph /  3.2km/h 3.0mph /  4.8km/h 55% 0.00in /  0mm 0.0 W/m2
01:59 62.2 °F /  16.8 °C 46.4 °F /  8 °C 30.31in /  1026.3hPa NE 0.9mph /  1.4km/h 3.0mph /  4.8km/h 56% 0.00in /  0mm 0.0 W/m2
02:05 61.9 °F /  16.6 °C 46.4 °F /  8 °C 30.31in /  1026.3hPa Calm   2.0mph /  3.2km/h 57% 0.00in /  0mm 0.0 W/m2
02:11 61.3 °F /  16.3 °C 46.0 °F /  7.8 °C 30.31in /  1026.3hPa Calm   1.0mph /  1.6km/h 57% 0.00in /  0mm 0.0 W/m2
02:17 61.2 °F /  16.2 °C 46.2 °F /  7.9 °C 30.31in /  1026.3hPa Calm   2.0mph /  3.2km/h 58% 0.00in /  0mm 0.0 W/m2
02:23 60.8 °F /  16 °C 45.9 °F /  7.7 °C 30.31in /  1026.3hPa NE 2.0mph /  3.2km/h 3.0mph /  4.8km/h 58% 0.00in /  0mm 0.0 W/m2
02:30 60.4 °F /  15.8 °C 46.0 °F /  7.8 °C 30.31in /  1026.3hPa NE 0.9mph /  1.4km/h 2.0mph /  3.2km/h 59% 0.00in /  0mm 0.0 W/m2
02:36 60.4 °F /  15.8 °C 46.0 °F /  7.8 °C 30.31in /  1026.3hPa NE 2.0mph /  3.2km/h 2.0mph /  3.2km/h 59% 0.00in /  0mm 0.0 W/m2
02:42 60.3 °F /  15.7 °C 45.9 °F /  7.7 °C 30.31in /  1026.3hPa ENE 0.9mph /  1.4km/h 1.0mph /  1.6km/h 59% 0.00in /  0mm 0.0 W/m2
02:48 60.1 °F /  15.6 °C 45.7 °F /  7.6 °C 30.31in /  1026.3hPa Calm   2.0mph /  3.2km/h 59% 0.00in /  0mm 0.0 W/m2
02:54 60.1 °F /  15.6 °C 45.7 °F /  7.6 °C 30.31in /  1026.3hPa East 0.9mph /  1.4km/h 2.0mph /  3.2km/h 59% 0.00in /  0mm 0.0 W/m2
03:00 59.9 °F /  15.5 °C 46.0 °F /  7.8 °C 30.31in /  1026.3hPa Calm   1.0mph /  1.6km/h 60% 0.00in /  0mm 0.0 W/m2
03:07 59.7 °F /  15.4 °C 45.9 °F /  7.7 °C 30.31in /  1026.3hPa Calm   1.0mph /  1.6km/h 60% 0.00in /  0mm 0.0 W/m2
03:13 59.5 °F /  15.3 °C 45.7 °F /  7.6 °C 30.31in /  1026.3hPa ESE 2.0mph /  3.2km/h 3.0mph /  4.8km/h 60% 0.00in /  0mm 0.0 W/m2
03:19 59.5 °F /  15.3 °C 45.7 °F /  7.6 °C 30.31in /  1026.3hPa NE 2.0mph /  3.2km/h 2.0mph /  3.2km/h 60% 0.00in /  0mm 0.0 W/m2
03:25 59.4 °F /  15.2 °C 45.9 °F /  7.7 °C 30.31in /  1026.3hPa Calm   2.0mph /  3.2km/h 61% 0.00in /  0mm 0.0 W/m2
03:31 59.4 °F /  15.2 °C 45.5 °F /  7.5 °C 30.31in /  1026.3hPa ESE 0.9mph /  1.4km/h 2.0mph /  3.2km/h 60% 0.00in /  0mm 0.0 W/m2
03:37 59.4 °F /  15.2 °C 45.5 °F /  7.5 °C 30.31in /  1026.3hPa Calm   2.0mph /  3.2km/h 60% 0.00in /  0mm 0.0 W/m2
03:43 59.4 °F /  15.2 °C 45.9 °F /  7.7 °C 30.31in /  1026.3hPa Calm   1.0mph /  1.6km/h 61% 0.00in /  0mm 0.0 W/m2
03:49 59.4 °F /  15.2 °C 45.9 °F /  7.7 °C 30.31in /  1026.3hPa Calm   1.0mph /  1.6km/h 61% 0.00in /  0mm 0.0 W/m2
03:55 59.4 °F /  15.2 °C 45.9 °F /  7.7 °C 30.31in /  1026.3hPa Calm   3.0mph /  4.8km/h 61% 0.00in /  0mm 0.0 W/m2
04:02 59.4 °F /  15.2 °C 45.9 °F /  7.7 °C 30.31in /  1026.3hPa Calm   1.0mph /  1.6km/h 61% 0.00in /  0mm 0.0 W/m2
04:08 59.5 °F /  15.3 °C 46.0 °F /  7.8 °C 30.31in /  1026.3hPa ENE 0.9mph /  1.4km/h 2.0mph /  3.2km/h 61% 0.00in /  0mm 0.0 W/m2
04:14 59.7 °F /  15.4 °C 46.2 °F /  7.9 °C 30.31in /  1026.3hPa ESE 2.0mph /  3.2km/h 5.0mph /  8km/h 61% 0.00in /  0mm 0.0 W/m2
04:20 60.1 °F /  15.6 °C 46.2 °F /  7.9 °C 30.31in /  1026.3hPa Calm   5.0mph /  8km/h 60% 0.00in /  0mm 0.0 W/m2
04:26 60.3 °F /  15.7 °C 46.4 °F /  8 °C 30.31in /  1026.3hPa SE 0.9mph /  1.4km/h 5.0mph /  8km/h 60% 0.00in /  0mm 0.0 W/m2
04:32 60.4 °F /  15.8 °C 46.0 °F /  7.8 °C 30.31in /  1026.3hPa ESE 0.9mph /  1.4km/h 1.0mph /  1.6km/h 59% 0.00in /  0mm 0.0 W/m2
04:38 60.6 °F /  15.9 °C 46.2 °F /  7.9 °C 30.31in /  1026.3hPa Calm   3.0mph /  4.8km/h 59% 0.00in /  0mm 0.0 W/m2
04:45 60.6 °F /  15.9 °C 46.2 °F /  7.9 °C 30.31in /  1026.3hPa Calm   2.0mph /  3.2km/h 59% 0.00in /  0mm 0.0 W/m2
04:51 60.6 °F /  15.9 °C 46.2 °F /  7.9 °C 30.31in /  1026.3hPa East 2.0mph /  3.2km/h 3.0mph /  4.8km/h 59% 0.00in /  0mm 0.0 W/m2
04:57 60.4 °F /  15.8 °C 46.0 °F /  7.8 °C 30.32in /  1026.6hPa NE 0.9mph /  1.4km/h 1.0mph /  1.6km/h 59% 0.00in /  0mm 0.0 W/m2
05:03 60.4 °F /  15.8 °C 46.4 °F /  8 °C 30.32in /  1026.6hPa Calm   1.0mph /  1.6km/h 60% 0.00in /  0mm 0.0 W/m2
05:09 60.3 °F /  15.7 °C 46.4 °F /  8 °C 30.32in /  1026.6hPa Calm   1.0mph /  1.6km/h 60% 0.00in /  0mm 0.0 W/m2
05:15 60.1 °F /  15.6 °C 46.6 °F /  8.1 °C 30.32in /  1026.6hPa Calm   1.0mph /  1.6km/h 61% 0.00in /  0mm 0.0 W/m2
05:21 59.5 °F /  15.3 °C 46.0 °F /  7.8 °C 30.32in /  1026.6hPa NE 0.9mph /  1.4km/h 1.0mph /  1.6km/h 61% 0.00in /  0mm 0.0 W/m2
05:28 59.4 °F /  15.2 °C 46.4 °F /  8 °C 30.32in /  1026.6hPa Calm     62% 0.00in /  0mm 0.0 W/m2
05:34 58.8 °F /  14.9 °C 46.2 °F /  7.9 °C 30.32in /  1026.6hPa Calm     63% 0.00in /  0mm 0.0 W/m2
05:40 58.5 °F /  14.7 °C 46.4 °F /  8 °C 30.32in /  1026.6hPa Calm     64% 0.00in /  0mm 0.0 W/m2
05:46 57.9 °F /  14.4 °C 46.2 °F /  7.9 °C 30.33in /  1027hPa Calm   1.0mph /  1.6km/h 65% 0.00in /  0mm 0.0 W/m2
05:52 57.6 °F /  14.2 °C 46.2 °F /  7.9 °C 30.32in /  1026.6hPa Calm     66% 0.00in /  0mm 0.0 W/m2
05:58 57.2 °F /  14 °C 46.4 °F /  8 °C 30.33in /  1027hPa Calm     67% 0.00in /  0mm 0.0 W/m2
06:04 56.8 °F /  13.8 °C 46.4 °F /  8 °C 30.33in /  1027hPa East 0.9mph /  1.4km/h 1.0mph /  1.6km/h 68% 0.00in /  0mm 0.0 W/m2
06:10 56.7 °F /  13.7 °C 46.2 °F /  7.9 °C 30.33in /  1027hPa East 0.9mph /  1.4km/h 1.0mph /  1.6km/h 68% 0.00in /  0mm 0.0 W/m2
06:17 56.5 °F /  13.6 °C 46.4 °F /  8 °C 30.34in /  1027.3hPa Calm   2.0mph /  3.2km/h 69% 0.00in /  0mm 0.0 W/m2
06:23 56.1 °F /  13.4 °C 46.0 °F /  7.8 °C 30.34in /  1027.3hPa Calm   2.0mph /  3.2km/h 69% 0.00in /  0mm 0.0 W/m2
06:29 55.9 °F /  13.3 °C 46.2 °F /  7.9 °C 30.34in /  1027.3hPa Calm     70% 0.00in /  0mm 0.0 W/m2
06:35 55.8 °F /  13.2 °C 46.0 °F /  7.8 °C 30.34in /  1027.3hPa Calm     70% 0.00in /  0mm 0.0 W/m2
06:41 55.8 °F /  13.2 °C 46.0 °F /  7.8 °C 30.34in /  1027.3hPa Calm     70% 0.00in /  0mm 0.0 W/m2
06:47 55.6 °F /  13.1 °C 46.0 °F /  7.8 °C 30.35in /  1027.7hPa Calm     70% 0.00in /  0mm 0.0 W/m2
06:53 55.6 °F /  13.1 °C 46.4 °F /  8 °C 30.35in /  1027.7hPa Calm     71% 0.00in /  0mm 0.0 W/m2
07:00 55.2 °F /  12.9 °C 46.0 °F /  7.8 °C 30.35in /  1027.7hPa Calm     71% 0.00in /  0mm 0.0 W/m2
07:06 55.2 °F /  12.9 °C 46.0 °F /  7.8 °C 30.35in /  1027.7hPa Calm   3.0mph /  4.8km/h 71% 0.00in /  0mm 7.0 W/m2
07:12 55.2 °F /  12.9 °C 46.4 °F /  8 °C 30.35in /  1027.7hPa Calm   2.0mph /  3.2km/h 72% 0.00in /  0mm 11.0 W/m2
07:18 55.0 °F /  12.8 °C 46.2 °F /  7.9 °C 30.35in /  1027.7hPa Calm   2.0mph /  3.2km/h 72% 0.00in /  0mm 14.0 W/m2
07:24 55.0 °F /  12.8 °C 46.2 °F /  7.9 °C 30.35in /  1027.7hPa Calm   1.0mph /  1.6km/h 72% 0.00in /  0mm 16.0 W/m2
07:30 55.0 °F /  12.8 °C 46.2 °F /  7.9 °C 30.35in /  1027.7hPa Calm   1.0mph /  1.6km/h 72% 0.00in /  0mm 19.0 W/m2
07:37 55.0 °F /  12.8 °C 46.6 °F /  8.1 °C 30.35in /  1027.7hPa Calm     73% 0.00in /  0mm 21.0 W/m2
07:43 55.0 °F /  12.8 °C 46.6 °F /  8.1 °C 30.35in /  1027.7hPa Calm   1.0mph /  1.6km/h 73% 0.00in /  0mm 25.0 W/m2
07:49 55.2 °F /  12.9 °C 47.1 °F /  8.4 °C 30.36in /  1028hPa Calm   1.0mph /  1.6km/h 74% 0.00in /  0mm 26.0 W/m2
07:55 55.4 °F /  13 °C 47.3 °F /  8.5 °C 30.36in /  1028hPa Calm     74% 0.00in /  0mm 28.0 W/m2
08:01 55.9 °F /  13.3 °C 47.8 °F /  8.8 °C 30.36in /  1028hPa Calm   1.0mph /  1.6km/h 74% 0.00in /  0mm 30.0 W/m2
08:07 56.3 °F /  13.5 °C 47.8 °F /  8.8 °C 30.36in /  1028hPa Calm   3.0mph /  4.8km/h 73% 0.00in /  0mm 32.0 W/m2
08:13 56.8 °F /  13.8 °C 47.8 °F /  8.8 °C 30.36in /  1028hPa Calm   3.0mph /  4.8km/h 72% 0.00in /  0mm 33.0 W/m2
08:20 57.7 °F /  14.3 °C 48.0 °F /  8.9 °C 30.36in /  1028hPa Calm   2.0mph /  3.2km/h 70% 0.00in /  0mm 35.0 W/m2
08:26 58.6 °F /  14.8 °C 48.2 °F /  9 °C 30.36in /  1028hPa Calm   3.0mph /  4.8km/h 68% 0.00in /  0mm 37.0 W/m2
08:32 59.4 °F /  15.2 °C 46.8 °F /  8.2 °C 30.37in /  1028.3hPa NE 0.9mph /  1.4km/h 2.0mph /  3.2km/h 63% 0.00in /  0mm 39.0 W/m2
08:38 60.3 °F /  15.7 °C 46.8 °F /  8.2 °C 30.37in /  1028.3hPa East 2.0mph /  3.2km/h 2.0mph /  3.2km/h 61% 0.00in /  0mm 39.0 W/m2
08:44 61.2 °F /  16.2 °C 47.7 °F /  8.7 °C 30.37in /  1028.3hPa Calm   1.0mph /  1.6km/h 61% 0.00in /  0mm 44.0 W/m2
08:50 61.9 °F /  16.6 °C 47.5 °F /  8.6 °C 30.37in /  1028.3hPa Calm   1.0mph /  1.6km/h 59% 0.00in /  0mm 49.0 W/m2
08:56 62.8 °F /  17.1 °C 47.8 °F /  8.8 °C 30.37in /  1028.3hPa Calm   4.0mph /  6.4km/h 58% 0.00in /  0mm 44.0 W/m2
09:02 63.7 °F /  17.6 °C 47.3 °F /  8.5 °C 30.37in /  1028.3hPa Calm   3.0mph /  4.8km/h 55% 0.00in /  0mm 47.0 W/m2
09:08 64.6 °F /  18.1 °C 48.0 °F /  8.9 °C 30.37in /  1028.3hPa Calm   1.0mph /  1.6km/h 55% 0.00in /  0mm 49.0 W/m2
09:15 65.1 °F /  18.4 °C 47.5 °F /  8.6 °C 30.37in /  1028.3hPa Calm   3.0mph /  4.8km/h 53% 0.00in /  0mm 53.0 W/m2
09:21 66.0 °F /  18.9 °C 47.3 °F /  8.5 °C 30.37in /  1028.3hPa ENE 0.9mph /  1.4km/h 3.0mph /  4.8km/h 51% 0.00in /  0mm 54.0 W/m2
09:27 67.1 °F /  19.5 °C 47.3 °F /  8.5 °C 30.37in /  1028.3hPa NNW 2.9mph /  4.7km/h 5.0mph /  8km/h 49% 0.00in /  0mm 54.0 W/m2
09:33 68.5 °F /  20.3 °C 46.4 °F /  8 °C 30.37in /  1028.3hPa NNE 6.0mph /  9.7km/h 10.0mph /  16.1km/h 45% 0.00in /  0mm 56.0 W/m2
09:39 70.0 °F /  21.1 °C 44.6 °F /  7 °C 30.37in /  1028.3hPa NNE 6.9mph /  11.1km/h 11.0mph /  17.7km/h 40% 0.00in /  0mm 62.0 W/m2
09:45 71.1 °F /  21.7 °C 45.5 °F /  7.5 °C 30.37in /  1028.3hPa NE 4.0mph /  6.4km/h 10.0mph /  16.1km/h 40% 0.00in /  0mm 531.0 W/m2
09:51 72.0 °F /  22.2 °C 45.0 °F /  7.2 °C 30.37in /  1028.3hPa NNE 11.0mph /  17.7km/h 11.0mph /  17.7km/h 38% 0.00in /  0mm 615.0 W/m2
09:58 73.0 °F /  22.8 °C 45.1 °F /  7.3 °C 30.37in /  1028.3hPa NNE 2.0mph /  3.2km/h 9.0mph /  14.5km/h 37% 0.00in /  0mm 633.0 W/m2
10:04 73.9 °F /  23.3 °C 46.0 °F /  7.8 °C 30.37in /  1028.3hPa North 8.9mph /  14.3km/h 15.0mph /  24.1km/h 37% 0.00in /  0mm 654.0 W/m2
10:10 73.9 °F /  23.3 °C 44.6 °F /  7 °C 30.37in /  1028.3hPa NNE 6.9mph /  11.1km/h 18.0mph /  29km/h 35% 0.00in /  0mm 666.0 W/m2
10:16 74.3 °F /  23.5 °C 45.7 °F /  7.6 °C 30.37in /  1028.3hPa NE 8.9mph /  14.3km/h 12.0mph /  19.3km/h 36% 0.00in /  0mm 686.0 W/m2
10:22 74.5 °F /  23.6 °C 45.0 °F /  7.2 °C 30.38in /  1028.7hPa NNW 8.9mph /  14.3km/h 13.0mph /  20.9km/h 35% 0.00in /  0mm 703.0 W/m2
10:28 74.8 °F /  23.8 °C 45.3 °F /  7.4 °C 30.37in /  1028.3hPa ENE 8.1mph /  13km/h 12.0mph /  19.3km/h 35% 0.00in /  0mm 728.0 W/m2
10:34 75.4 °F /  24.1 °C 44.2 °F /  6.8 °C 30.38in /  1028.7hPa NE 11.0mph /  17.7km/h 21.0mph /  33.8km/h 33% 0.00in /  0mm 745.0 W/m2
10:40 75.6 °F /  24.2 °C 45.1 °F /  7.3 °C 30.37in /  1028.3hPa ENE 2.0mph /  3.2km/h 10.0mph /  16.1km/h 34% 0.00in /  0mm 754.0 W/m2
10:47 75.9 °F /  24.4 °C 44.8 °F /  7.1 °C 30.37in /  1028.3hPa NW 8.1mph /  13km/h 14.0mph /  22.5km/h 33% 0.00in /  0mm 770.0 W/m2
10:53 76.3 °F /  24.6 °C 44.2 °F /  6.8 °C 30.37in /  1028.3hPa ENE 8.1mph /  13km/h 10.0mph /  16.1km/h 32% 0.00in /  0mm 788.0 W/m2
10:59 76.3 °F /  24.6 °C 44.2 °F /  6.8 °C 30.37in /  1028.3hPa NNE 6.9mph /  11.1km/h 15.0mph /  24.1km/h 32% 0.00in /  0mm 800.0 W/m2
11:05 76.3 °F /  24.6 °C 45.1 °F /  7.3 °C 30.37in /  1028.3hPa NNE 2.9mph /  4.7km/h 5.0mph /  8km/h 33% 0.00in /  0mm 812.0 W/m2
11:11 77.2 °F /  25.1 °C 45.0 °F /  7.2 °C 30.37in /  1028.3hPa NE 11.0mph /  17.7km/h 18.0mph /  29km/h 32% 0.00in /  0mm 831.0 W/m2
11:17 77.5 °F /  25.3 °C 45.3 °F /  7.4 °C 30.37in /  1028.3hPa ENE 8.1mph /  13km/h 14.0mph /  22.5km/h 32% 0.00in /  0mm 833.0 W/m2
11:23 77.5 °F /  25.3 °C 45.3 °F /  7.4 °C 30.37in /  1028.3hPa NNW 2.9mph /  4.7km/h 11.0mph /  17.7km/h 32% 0.00in /  0mm 846.0 W/m2
11:30 77.7 °F /  25.4 °C 44.6 °F /  7 °C 30.37in /  1028.3hPa NNE 6.9mph /  11.1km/h 11.0mph /  17.7km/h 31% 0.00in /  0mm 865.0 W/m2
11:36 78.1 °F /  25.6 °C 45.0 °F /  7.2 °C 30.37in /  1028.3hPa ENE 6.0mph /  9.7km/h 10.0mph /  16.1km/h 31% 0.00in /  0mm 865.0 W/m2
11:42 78.1 °F /  25.6 °C 45.9 °F /  7.7 °C 30.36in /  1028hPa SE 6.9mph /  11.1km/h 10.0mph /  16.1km/h 32% 0.00in /  0mm 868.0 W/m2
11:48 78.4 °F /  25.8 °C 45.3 °F /  7.4 °C 30.36in /  1028hPa NNE 4.0mph /  6.4km/h 10.0mph /  16.1km/h 31% 0.00in /  0mm 877.0 W/m2
11:54 79.2 °F /  26.2 °C 45.9 °F /  7.7 °C 30.36in /  1028hPa ENE 4.9mph /  7.9km/h 9.0mph /  14.5km/h 31% 0.00in /  0mm 886.0 W/m2
12:00 79.3 °F /  26.3 °C 45.1 °F /  7.3 °C 30.36in /  1028hPa NNE 8.9mph /  14.3km/h 11.0mph /  17.7km/h 30% 0.00in /  0mm 886.0 W/m2
12:06 79.2 °F /  26.2 °C 45.1 °F /  7.3 °C 30.35in /  1027.7hPa ESE 6.0mph /  9.7km/h 14.0mph /  22.5km/h 30% 0.00in /  0mm 902.0 W/m2
12:12 79.3 °F /  26.3 °C 45.1 °F /  7.3 °C 30.36in /  1028hPa NE 4.9mph /  7.9km/h 11.0mph /  17.7km/h 30% 0.00in /  0mm 905.0 W/m2
12:19 79.5 °F /  26.4 °C 46.2 °F /  7.9 °C 30.35in /  1027.7hPa ENE 4.9mph /  7.9km/h 9.0mph /  14.5km/h 31% 0.00in /  0mm 902.0 W/m2
12:25 79.9 °F /  26.6 °C 44.8 °F /  7.1 °C 30.35in /  1027.7hPa NE 8.1mph /  13km/h 13.0mph /  20.9km/h 29% 0.00in /  0mm 916.0 W/m2
12:31 79.9 °F /  26.6 °C 45.7 °F /  7.6 °C 30.35in /  1027.7hPa NE 8.9mph /  14.3km/h 15.0mph /  24.1km/h 30% 0.00in /  0mm 914.0 W/m2
12:37 80.1 °F /  26.7 °C 45.9 °F /  7.7 °C 30.35in /  1027.7hPa NE 10.1mph /  16.3km/h 11.0mph /  17.7km/h 30% 0.00in /  0mm 919.0 W/m2
12:43 80.2 °F /  26.8 °C 46.0 °F /  7.8 °C 30.35in /  1027.7hPa NNW 0.9mph /  1.4km/h 8.0mph /  12.9km/h 30% 0.00in /  0mm 914.0 W/m2
12:49 80.2 °F /  26.8 °C 46.0 °F /  7.8 °C 30.35in /  1027.7hPa ENE 8.1mph /  13km/h 12.0mph /  19.3km/h 30% 0.00in /  0mm 911.0 W/m2
12:55 80.2 °F /  26.8 °C 46.9 °F /  8.3 °C 30.35in /  1027.7hPa ENE 6.0mph /  9.7km/h 11.0mph /  17.7km/h 31% 0.00in /  0mm 919.0 W/m2
13:02 80.4 °F /  26.9 °C 46.2 °F /  7.9 °C 30.34in /  1027.3hPa ENE 2.9mph /  4.7km/h 8.0mph /  12.9km/h 30% 0.00in /  0mm 911.0 W/m2
13:08 80.2 °F /  26.8 °C 46.0 °F /  7.8 °C 30.34in /  1027.3hPa SE 4.9mph /  7.9km/h 10.0mph /  16.1km/h 30% 0.00in /  0mm 914.0 W/m2
13:14 80.8 °F /  27.1 °C 45.5 °F /  7.5 °C 30.34in /  1027.3hPa NNW 0.9mph /  1.4km/h 7.0mph /  11.3km/h 29% 0.00in /  0mm 914.0 W/m2
13:20 81.1 °F /  27.3 °C 45.9 °F /  7.7 °C 30.34in /  1027.3hPa North 2.9mph /  4.7km/h 13.0mph /  20.9km/h 29% 0.00in /  0mm 907.0 W/m2
13:26 81.1 °F /  27.3 °C 45.9 °F /  7.7 °C 30.33in /  1027hPa ENE 4.9mph /  7.9km/h 12.0mph /  19.3km/h 29% 0.00in /  0mm 904.0 W/m2
13:32 81.1 °F /  27.3 °C 45.0 °F /  7.2 °C 30.33in /  1027hPa East 8.9mph /  14.3km/h 9.0mph /  14.5km/h 28% 0.00in /  0mm 900.0 W/m2
13:38 81.1 °F /  27.3 °C 45.0 °F /  7.2 °C 30.33in /  1027hPa ENE 6.0mph /  9.7km/h 10.0mph /  16.1km/h 28% 0.00in /  0mm 902.0 W/m2
13:44 81.1 °F /  27.3 °C 45.0 °F /  7.2 °C 30.33in /  1027hPa NNE 11.0mph /  17.7km/h 14.0mph /  22.5km/h 28% 0.00in /  0mm 893.0 W/m2
13:50 81.3 °F /  27.4 °C 45.1 °F /  7.3 °C 30.32in /  1026.6hPa NNW 0.9mph /  1.4km/h 9.0mph /  14.5km/h 28% 0.00in /  0mm 884.0 W/m2
13:57 81.9 °F /  27.7 °C 45.5 °F /  7.5 °C 30.32in /  1026.6hPa ESE 6.9mph /  11.1km/h 11.0mph /  17.7km/h 28% 0.00in /  0mm 874.0 W/m2
14:03 82.2 °F /  27.9 °C 45.0 °F /  7.2 °C 30.32in /  1026.6hPa NE 6.9mph /  11.1km/h 13.0mph /  20.9km/h 27% 0.00in /  0mm 868.0 W/m2
14:09 82.0 °F /  27.8 °C 45.7 °F /  7.6 °C 30.32in /  1026.6hPa North 2.9mph /  4.7km/h 7.0mph /  11.3km/h 28% 0.00in /  0mm 853.0 W/m2
14:15 82.2 °F /  27.9 °C 45.0 °F /  7.2 °C 30.32in /  1026.6hPa NNE 6.0mph /  9.7km/h 8.0mph /  12.9km/h 27% 0.00in /  0mm 844.0 W/m2
14:21 82.2 °F /  27.9 °C 45.9 °F /  7.7 °C 30.32in /  1026.6hPa NNE 2.9mph /  4.7km/h 10.0mph /  16.1km/h 28% 0.00in /  0mm 837.0 W/m2
14:29 82.8 °F /  28.2 °C 45.3 °F /  7.4 °C 30.31in /  1026.3hPa North 8.9mph /  14.3km/h 9.0mph /  14.5km/h 27% 0.00in /  0mm 817.0 W/m2
14:36 82.8 °F /  28.2 °C 45.3 °F /  7.4 °C 30.31in /  1026.3hPa NNE 4.0mph /  6.4km/h 7.0mph /  11.3km/h 27% 0.00in /  0mm 812.0 W/m2
14:42 82.9 °F /  28.3 °C 44.6 °F /  7 °C 30.30in /  1026hPa North 6.0mph /  9.7km/h 8.0mph /  12.9km/h 26% 0.00in /  0mm 800.0 W/m2
14:48 82.9 °F /  28.3 °C 44.6 °F /  7 °C 30.30in /  1026hPa North 8.1mph /  13km/h 13.0mph /  20.9km/h 26% 0.00in /  0mm 793.0 W/m2
14:54 82.8 °F /  28.2 °C 44.4 °F /  6.9 °C 30.30in /  1026hPa NE 0.9mph /  1.4km/h 4.0mph /  6.4km/h 26% 0.00in /  0mm 773.0 W/m2
15:00 82.9 °F /  28.3 °C 45.5 °F /  7.5 °C 30.30in /  1026hPa ESE 6.0mph /  9.7km/h 7.0mph /  11.3km/h 27% 0.00in /  0mm 756.0 W/m2
15:06 83.1 °F /  28.4 °C 43.7 °F /  6.5 °C 30.30in /  1026hPa NE 2.0mph /  3.2km/h 6.0mph /  9.7km/h 25% 0.00in /  0mm 742.0 W/m2
15:12 83.1 °F /  28.4 °C 44.6 °F /  7 °C 30.30in /  1026hPa NNW 2.0mph /  3.2km/h 8.0mph /  12.9km/h 26% 0.00in /  0mm 726.0 W/m2
15:18 83.3 °F /  28.5 °C 44.8 °F /  7.1 °C 30.30in /  1026hPa SSE 2.9mph /  4.7km/h 12.0mph /  19.3km/h 26% 0.00in /  0mm 707.0 W/m2
15:24 83.1 °F /  28.4 °C 44.6 °F /  7 °C 30.30in /  1026hPa NE 6.0mph /  9.7km/h 6.0mph /  9.7km/h 26% 0.00in /  0mm 700.0 W/m2
15:31 83.1 °F /  28.4 °C 44.6 °F /  7 °C 30.30in /  1026hPa NNE 4.9mph /  7.9km/h 9.0mph /  14.5km/h 26% 0.00in /  0mm 682.0 W/m2
15:37 83.5 °F /  28.6 °C 46.0 °F /  7.8 °C 30.30in /  1026hPa East 4.9mph /  7.9km/h 11.0mph /  17.7km/h 27% 0.00in /  0mm 663.0 W/m2
15:43 83.5 °F /  28.6 °C 46.0 °F /  7.8 °C 30.29in /  1025.6hPa SE 2.9mph /  4.7km/h 5.0mph /  8km/h 27% 0.00in /  0mm 631.0 W/m2
15:49 83.7 °F /  28.7 °C 45.1 °F /  7.3 °C 30.29in /  1025.6hPa East 2.0mph /  3.2km/h 8.0mph /  12.9km/h 26% 0.00in /  0mm 622.0 W/m2
15:55 83.3 °F /  28.5 °C 44.8 °F /  7.1 °C 30.30in /  1026hPa NNE 4.0mph /  6.4km/h 10.0mph /  16.1km/h 26% 0.00in /  0mm 601.0 W/m2
16:01 83.5 °F /  28.6 °C 45.0 °F /  7.2 °C 30.30in /  1026hPa Calm   5.0mph /  8km/h 26% 0.00in /  0mm 587.0 W/m2
16:07 83.5 °F /  28.6 °C 45.0 °F /  7.2 °C 30.30in /  1026hPa Calm   3.0mph /  4.8km/h 26% 0.00in /  0mm 559.0 W/m2
16:14 83.7 °F /  28.7 °C 45.1 °F /  7.3 °C 30.30in /  1026hPa NNE 6.9mph /  11.1km/h 12.0mph /  19.3km/h 26% 0.00in /  0mm 547.0 W/m2
16:20 83.5 °F /  28.6 °C 45.0 °F /  7.2 °C 30.30in /  1026hPa NE 0.9mph /  1.4km/h 7.0mph /  11.3km/h 26% 0.00in /  0mm 520.0 W/m2
16:26 83.1 °F /  28.4 °C 45.7 °F /  7.6 °C 30.30in /  1026hPa NNE 4.0mph /  6.4km/h 6.0mph /  9.7km/h 27% 0.00in /  0mm 492.0 W/m2
16:32 83.1 °F /  28.4 °C 45.7 °F /  7.6 °C 30.30in /  1026hPa Calm   6.0mph /  9.7km/h 27% 0.00in /  0mm 476.0 W/m2
16:38 83.1 °F /  28.4 °C 45.7 °F /  7.6 °C 30.30in /  1026hPa Calm   9.0mph /  14.5km/h 27% 0.00in /  0mm 455.0 W/m2
16:44 83.1 °F /  28.4 °C 45.7 °F /  7.6 °C 30.30in /  1026hPa SE 4.0mph /  6.4km/h 11.0mph /  17.7km/h 27% 0.00in /  0mm 425.0 W/m2
16:50 83.3 °F /  28.5 °C 45.9 °F /  7.7 °C 30.30in /  1026hPa Calm   3.0mph /  4.8km/h 27% 0.00in /  0mm 410.0 W/m2
16:56 83.1 °F /  28.4 °C 45.7 °F /  7.6 °C 30.30in /  1026hPa North 2.9mph /  4.7km/h 9.0mph /  14.5km/h 27% 0.00in /  0mm 381.0 W/m2
17:03 82.9 °F /  28.3 °C 45.5 °F /  7.5 °C 30.30in /  1026hPa NE 8.1mph /  13km/h 10.0mph /  16.1km/h 27% 0.00in /  0mm 362.0 W/m2
17:09 82.8 °F /  28.2 °C 45.3 °F /  7.4 °C 30.30in /  1026hPa Calm   5.0mph /  8km/h 27% 0.00in /  0mm 334.0 W/m2
17:15 82.8 °F /  28.2 °C 45.3 °F /  7.4 °C 30.31in /  1026.3hPa NE 0.9mph /  1.4km/h 10.0mph /  16.1km/h 27% 0.00in /  0mm 315.0 W/m2
17:21 82.6 °F /  28.1 °C 45.1 °F /  7.3 °C 30.31in /  1026.3hPa East 4.9mph /  7.9km/h 7.0mph /  11.3km/h 27% 0.00in /  0mm 290.0 W/m2
17:27 82.9 °F /  28.3 °C 45.5 °F /  7.5 °C 30.31in /  1026.3hPa East 6.0mph /  9.7km/h 7.0mph /  11.3km/h 27% 0.00in /  0mm 265.0 W/m2
17:33 82.9 °F /  28.3 °C 44.6 °F /  7 °C 30.31in /  1026.3hPa SSE 0.9mph /  1.4km/h 5.0mph /  8km/h 26% 0.00in /  0mm 244.0 W/m2
17:39 82.9 °F /  28.3 °C 44.6 °F /  7 °C 30.31in /  1026.3hPa South 2.9mph /  4.7km/h 6.0mph /  9.7km/h 26% 0.00in /  0mm 221.0 W/m2
17:46 82.8 °F /  28.2 °C 44.4 °F /  6.9 °C 30.31in /  1026.3hPa ESE 2.0mph /  3.2km/h 4.0mph /  6.4km/h 26% 0.00in /  0mm 199.0 W/m2
17:52 82.0 °F /  27.8 °C 45.7 °F /  7.6 °C 30.31in /  1026.3hPa ESE 0.9mph /  1.4km/h 6.0mph /  9.7km/h 28% 0.00in /  0mm 174.0 W/m2
17:58 81.7 °F /  27.6 °C 44.4 °F /  6.9 °C 30.31in /  1026.3hPa ENE 4.9mph /  7.9km/h 5.0mph /  8km/h 27% 0.00in /  0mm 151.0 W/m2
18:05 81.1 °F /  27.3 °C 45.0 °F /  7.2 °C 30.32in /  1026.6hPa East 2.0mph /  3.2km/h 9.0mph /  14.5km/h 28% 0.00in /  0mm 123.0 W/m2
18:10 80.8 °F /  27.1 °C 45.5 °F /  7.5 °C 30.32in /  1026.6hPa East 0.9mph /  1.4km/h 5.0mph /  8km/h 29% 0.00in /  0mm 93.0 W/m2
18:16 80.2 °F /  26.8 °C 44.2 °F /  6.8 °C 30.32in /  1026.6hPa Calm   5.0mph /  8km/h 28% 0.00in /  0mm 33.0 W/m2
18:22 79.5 °F /  26.4 °C 44.4 °F /  6.9 °C 30.32in /  1026.6hPa East 6.0mph /  9.7km/h 6.0mph /  9.7km/h 29% 0.00in /  0mm 28.0 W/m2
18:28 79.2 °F /  26.2 °C 45.1 °F /  7.3 °C 30.32in /  1026.6hPa East 0.9mph /  1.4km/h 5.0mph /  8km/h 30% 0.00in /  0mm 21.0 W/m2
18:35 78.4 °F /  25.8 °C 44.4 °F /  6.9 °C 30.33in /  1027hPa Calm   3.0mph /  4.8km/h 30% 0.00in /  0mm 16.0 W/m2
18:41 77.9 °F /  25.5 °C 44.8 °F /  7.1 °C 30.33in /  1027hPa Calm   3.0mph /  4.8km/h 31% 0.00in /  0mm 11.0 W/m2
18:47 77.4 °F /  25.2 °C 44.4 °F /  6.9 °C 30.33in /  1027hPa Calm   3.0mph /  4.8km/h 31% 0.00in /  0mm 5.0 W/m2
18:53 77.0 °F /  25 °C 45.0 °F /  7.2 °C 30.33in /  1027hPa East 0.9mph /  1.4km/h 1.0mph /  1.6km/h 32% 0.00in /  0mm 0.0 W/m2
18:59 76.5 °F /  24.7 °C 44.4 °F /  6.9 °C 30.34in /  1027.3hPa Calm   2.0mph /  3.2km/h 32% 0.00in /  0mm 0.0 W/m2
19:05 75.9 °F /  24.4 °C 44.8 °F /  7.1 °C 30.34in /  1027.3hPa Calm     33% 0.00in /  0mm 0.0 W/m2
19:11 75.6 °F /  24.2 °C 45.1 °F /  7.3 °C 30.34in /  1027.3hPa Calm   1.0mph /  1.6km/h 34% 0.00in /  0mm 0.0 W/m2
19:17 74.8 °F /  23.8 °C 44.6 °F /  7 °C 30.34in /  1027.3hPa Calm     34% 0.00in /  0mm 0.0 W/m2
19:23 74.5 °F /  23.6 °C 45.0 °F /  7.2 °C 30.34in /  1027.3hPa Calm     35% 0.00in /  0mm 0.0 W/m2
19:30 73.8 °F /  23.2 °C 45.1 °F /  7.3 °C 30.35in /  1027.7hPa Calm     36% 0.00in /  0mm 0.0 W/m2
19:36 73.2 °F /  22.9 °C 44.6 °F /  7 °C 30.35in /  1027.7hPa Calm     36% 0.00in /  0mm 0.0 W/m2
19:42 72.3 °F /  22.4 °C 44.6 °F /  7 °C 30.35in /  1027.7hPa Calm     37% 0.00in /  0mm 0.0 W/m2
19:48 71.8 °F /  22.1 °C 44.8 °F /  7.1 °C 30.35in /  1027.7hPa Calm   1.0mph /  1.6km/h 38% 0.00in /  0mm 0.0 W/m2
19:54 71.1 °F /  21.7 °C 44.8 °F /  7.1 °C 30.35in /  1027.7hPa Calm     39% 0.00in /  0mm 0.0 W/m2
20:00 70.5 °F /  21.4 °C 43.7 °F /  6.5 °C 30.36in /  1028hPa Calm   1.0mph /  1.6km/h 38% 0.00in /  0mm 0.0 W/m2
20:07 70.2 °F /  21.2 °C 44.1 °F /  6.7 °C 30.36in /  1028hPa Calm   2.0mph /  3.2km/h 39% 0.00in /  0mm 0.0 W/m2
20:13 69.6 °F /  20.9 °C 44.2 °F /  6.8 °C 30.36in /  1028hPa Calm   1.0mph /  1.6km/h 40% 0.00in /  0mm 0.0 W/m2
20:19 69.3 °F /  20.7 °C 44.6 °F /  7 °C 30.37in /  1028.3hPa Calm     41% 0.00in /  0mm 0.0 W/m2
20:25 68.9 °F /  20.5 °C 44.2 °F /  6.8 °C 30.37in /  1028.3hPa Calm   1.0mph /  1.6km/h 41% 0.00in /  0mm 0.0 W/m2
20:31 68.5 °F /  20.3 °C 43.9 °F /  6.6 °C 30.37in /  1028.3hPa Calm     41% 0.00in /  0mm 0.0 W/m2
20:37 68.2 °F /  20.1 °C 44.2 °F /  6.8 °C 30.37in /  1028.3hPa Calm   2.0mph /  3.2km/h 42% 0.00in /  0mm 0.0 W/m2
20:43 67.8 °F /  19.9 °C 44.4 °F /  6.9 °C 30.37in /  1028.3hPa Calm   1.0mph /  1.6km/h 43% 0.00in /  0mm 0.0 W/m2
20:49 67.5 °F /  19.7 °C 44.8 °F /  7.1 °C 30.38in /  1028.7hPa Calm   1.0mph /  1.6km/h 44% 0.00in /  0mm 0.0 W/m2
20:55 67.3 °F /  19.6 °C 44.6 °F /  7 °C 30.38in /  1028.7hPa Calm   1.0mph /  1.6km/h 44% 0.00in /  0mm 0.0 W/m2
21:02 66.7 °F /  19.3 °C 44.8 °F /  7.1 °C 30.38in /  1028.7hPa Calm   2.0mph /  3.2km/h 45% 0.00in /  0mm 0.0 W/m2
21:08 66.6 °F /  19.2 °C 44.6 °F /  7 °C 30.38in /  1028.7hPa Calm   1.0mph /  1.6km/h 45% 0.00in /  0mm 0.0 W/m2
21:14 66.2 °F /  19 °C 44.8 °F /  7.1 °C 30.38in /  1028.7hPa NE 0.9mph /  1.4km/h 1.0mph /  1.6km/h 46% 0.00in /  0mm 0.0 W/m2
21:20 65.8 °F /  18.8 °C 44.4 °F /  6.9 °C 30.38in /  1028.7hPa East 0.9mph /  1.4km/h 2.0mph /  3.2km/h 46% 0.00in /  0mm 0.0 W/m2
21:26 65.7 °F /  18.7 °C 45.0 °F /  7.2 °C 30.39in /  1029hPa Calm   1.0mph /  1.6km/h 47% 0.00in /  0mm 0.0 W/m2
21:32 65.5 °F /  18.6 °C 44.8 °F /  7.1 °C 30.39in /  1029hPa Calm   2.0mph /  3.2km/h 47% 0.00in /  0mm 0.0 W/m2
21:38 65.1 °F /  18.4 °C 44.4 °F /  6.9 °C 30.39in /  1029hPa Calm   1.0mph /  1.6km/h 47% 0.00in /  0mm 0.0 W/m2
21:45 64.9 °F /  18.3 °C 44.8 °F /  7.1 °C 30.39in /  1029hPa Calm   1.0mph /  1.6km/h 48% 0.00in /  0mm 0.0 W/m2
21:51 64.6 °F /  18.1 °C 45.0 °F /  7.2 °C 30.39in /  1029hPa Calm   2.0mph /  3.2km/h 49% 0.00in /  0mm 0.0 W/m2
21:57 64.4 °F /  18 °C 44.8 °F /  7.1 °C 30.40in /  1029.3hPa Calm   2.0mph /  3.2km/h 49% 0.00in /  0mm 0.0 W/m2
22:03 64.2 °F /  17.9 °C 44.6 °F /  7 °C 30.40in /  1029.3hPa Calm   2.0mph /  3.2km/h 49% 0.00in /  0mm 0.0 W/m2
22:09 64.0 °F /  17.8 °C 44.4 °F /  6.9 °C 30.40in /  1029.3hPa East 2.0mph /  3.2km/h 2.0mph /  3.2km/h 49% 0.00in /  0mm 0.0 W/m2
22:15 63.9 °F /  17.7 °C 44.2 °F /  6.8 °C 30.40in /  1029.3hPa Calm   1.0mph /  1.6km/h 49% 0.00in /  0mm 0.0 W/m2
22:21 63.7 °F /  17.6 °C 44.2 °F /  6.8 °C 30.40in /  1029.3hPa Calm   1.0mph /  1.6km/h 49% 0.00in /  0mm 0.0 W/m2
22:27 63.5 °F /  17.5 °C 43.5 °F /  6.4 °C 30.40in /  1029.3hPa Calm   1.0mph /  1.6km/h 48% 0.00in /  0mm 0.0 W/m2
22:33 63.5 °F /  17.5 °C 43.5 °F /  6.4 °C 30.40in /  1029.3hPa Calm   1.0mph /  1.6km/h 48% 0.00in /  0mm 0.0 W/m2
22:40 63.3 °F /  17.4 °C 43.3 °F /  6.3 °C 30.40in /  1029.3hPa NE 0.9mph /  1.4km/h 2.0mph /  3.2km/h 48% 0.00in /  0mm 0.0 W/m2
22:46 63.3 °F /  17.4 °C 43.9 °F /  6.6 °C 30.40in /  1029.3hPa Calm   2.0mph /  3.2km/h 49% 0.00in /  0mm 0.0 W/m2
22:52 63.1 °F /  17.3 °C 43.7 °F /  6.5 °C 30.40in /  1029.3hPa Calm   1.0mph /  1.6km/h 49% 0.00in /  0mm 0.0 W/m2
22:58 63.0 °F /  17.2 °C 43.5 °F /  6.4 °C 30.40in /  1029.3hPa Calm   1.0mph /  1.6km/h 49% 0.00in /  0mm 0.0 W/m2
23:04 62.8 °F /  17.1 °C 43.3 °F /  6.3 °C 30.41in /  1029.7hPa Calm     49% 0.00in /  0mm 0.0 W/m2
23:10 62.6 °F /  17 °C 43.2 °F /  6.2 °C 30.40in /  1029.3hPa Calm   1.0mph /  1.6km/h 49% 0.00in /  0mm 0.0 W/m2
23:17 62.2 °F /  16.8 °C 42.8 °F /  6 °C 30.41in /  1029.7hPa Calm   1.0mph /  1.6km/h 49% 0.00in /  0mm 0.0 W/m2
23:23 62.1 °F /  16.7 °C 43.2 °F /  6.2 °C 30.40in /  1029.3hPa Calm   1.0mph /  1.6km/h 50% 0.00in /  0mm 0.0 W/m2
23:29 61.9 °F /  16.6 °C 43.0 °F /  6.1 °C 30.41in /  1029.7hPa Calm   2.0mph /  3.2km/h 50% 0.00in /  0mm 0.0 W/m2
23:35 61.7 °F /  16.5 °C 42.8 °F /  6 °C 30.40in /  1029.3hPa Calm   2.0mph /  3.2km/h 50% 0.00in /  0mm 0.0 W/m2
23:41 61.5 °F /  16.4 °C 43.2 °F /  6.2 °C 30.41in /  1029.7hPa Calm   1.0mph /  1.6km/h 51% 0.00in /  0mm 0.0 W/m2
23:47 61.3 °F /  16.3 °C 43.0 °F /  6.1 °C 30.41in /  1029.7hPa East 0.9mph /  1.4km/h 2.0mph /  3.2km/h 51% 0.00in /  0mm 0.0 W/m2
23:53 61.2 °F /  16.2 °C 43.0 °F /  6.1 °C 30.41in /  1029.7hPa Calm   3.0mph /  4.8km/h 51% 0.00in /  0mm 0.0 W/m2
23:59 61.0 °F /  16.1 °C 42.8 °F /  6 °C 30.41in /  1029.7hPa Calm   2.0mph /  3.2km/h 51% 0.00in /  0mm 0.0 W/m2
Olympia, Windhoek, Namibia
Compliments of Weather Underground - 3 mb